Seajourney — V7OW5 — position and weather

sailwx.info

Track history (hours):
 
Tides and Currents Weather Stations Pressure Air Temp Water Temp Dewpoint Dewpoint Depression Visibility Wind Speed Wind Dir Waves Ship Positions

Seajourney

Last reported at 2017-Dec-28 20:45 UTC. Time now 2018-Feb-24 22:11 UTC.
Position N 37°50' W 031°23'.
Warning: this ship's position is 58 days out of date.

Length 229 m; draft 6.8 m.

Type: Cargo ship. MMSI: 538006596.

Date/timePositionNaut miles runAvg speedWind from/ knotsBaromVisibWave heightAir tempDewpointWater temp
2017-Dec-28 20:45N 37°50' W 031°23'311.7
2017-Dec-28 20:29N 37°52' W 031°21'611.7
2017-Dec-28 19:58N 37°56' W 031°15'711.4
2017-Dec-28 19:19N 38°01' W 031°08'411.8
2017-Dec-28 18:58N 38°04' W 031°04'511.5
2017-Dec-28 18:30N 38°08' W 030°60'711.7
2017-Dec-28 17:57N 38°13' W 030°54'511.7
2017-Dec-28 17:30N 38°16' W 030°50'611.6
2017-Dec-28 17:00N 38°21' W 030°44'611.3
2017-Dec-28 16:30N 38°24' W 030°39'611.4
2017-Dec-28 16:00N 38°28' W 030°33'611.6
2017-Dec-28 15:31N 38°31' W 030°27'611.4
2017-Dec-28 15:00N 38°35' W 030°21'611.4
2017-Dec-28 14:30N 38°38' W 030°16'611.4
2017-Dec-28 14:00N 38°41' W 030°10'511.0
2017-Dec-28 13:30N 38°44' W 030°04'611.1
2017-Dec-28 13:00N 38°47' W 029°57'611.2
2017-Dec-28 12:30N 38°49' W 029°51'611.3
2017-Dec-28 12:00N 38°52' W 029°44'611.1
2017-Dec-28 11:30N 38°55' W 029°38'510.9
2017-Dec-28 11:00N 38°57' W 029°32'510.9
2017-Dec-28 10:30N 38°60' W 029°26'510.9
2017-Dec-28 10:00N 39°03' W 029°20'611.2
2017-Dec-28 09:30N 39°06' W 029°14'611.2
2017-Dec-28 09:00N 39°09' W 029°08'510.8
2017-Dec-28 08:31N 39°12' W 029°02'611.4
2017-Dec-28 08:00N 39°15' W 028°56'611.4
2017-Dec-28 07:30N 39°18' W 028°50'611.4
2017-Dec-28 07:01N 39°21' W 028°44'611.4
2017-Dec-28 06:30N 39°25' W 028°38'611.6
2017-Dec-28 06:00N 39°28' W 028°32'611.4
2017-Dec-28 05:30N 39°31' W 028°25'611.5
2017-Dec-28 05:00N 39°34' W 028°19'611.4
2017-Dec-28 04:30N 39°37' W 028°13'611.2
2017-Dec-28 04:01N 39°40' W 028°07'611.4
2017-Dec-28 03:30N 39°44' W 028°01'611.4
2017-Dec-28 03:00N 39°47' W 027°55'611.3
2017-Dec-28 02:26N 39°50' W 027°48'24311.2
2017-Dec-27 04:45N 42°11' W 023°25'5 9.7
2017-Dec-27 04:14N 42°14' W 023°20'  
2017-Dec-23 20:13N 49°07' W 006°37'312.5
2017-Dec-23 20:00N 49°08' W 006°33'912.2
2017-Dec-23 19:19N 49°12' W 006°22'412.1
2017-Dec-23 19:00N 49°13' W 006°16'712.1
2017-Dec-23 18:26N 49°16' W 006°07'1212.1
2017-Dec-23 17:27N 49°20' W 005°50'512.2
2017-Dec-23 17:00N 49°22' W 005°42'1412.6
2017-Dec-23 15:51N 49°28' W 005°22'1112.1
2017-Dec-23 14:55N 49°32' W 005°06'613.3
2017-Dec-23 14:31N 49°35' W 004°58'713.6
2017-Dec-23 14:00N 49°37' W 004°48'1013.6
2017-Dec-23 13:16N 49°40' W 004°33'413.7
2017-Dec-23 13:00N 49°41' W 004°28'713.6
2017-Dec-23 12:30N 49°43' W 004°18'713.4
2017-Dec-23 12:01N 49°45' W 004°08'713.2
2017-Dec-23 11:31N 49°47' W 003°58'612.8
2017-Dec-23 11:01N 49°48' W 003°49'612.3
2017-Dec-23 10:30N 49°50' W 003°39'612.0
2017-Dec-23 10:00N 49°52' W 003°31'611.7
2017-Dec-23 09:31N 49°54' W 003°22'611.7
2017-Dec-23 09:00N 49°56' W 003°13'611.7
2017-Dec-23 08:30N 49°57' W 003°05'611.9
2017-Dec-23 08:00N 49°59' W 002°56'612.4
2017-Dec-23 07:30N 50°01' W 002°47'713.1
2017-Dec-23 07:00N 50°03' W 002°37'713.6
2017-Dec-23 06:30N 50°05' W 002°27'714.4
2017-Dec-23 06:00N 50°06' W 002°16'1015.3
2017-Dec-23 05:23N 50°08' W 002°01'715.8
2017-Dec-23 04:55N 50°10' W 001°50'716.1
2017-Dec-23 04:29N 50°12' W 001°40'816.1
2017-Dec-23 04:00N 50°14' W 001°28'815.7
2017-Dec-23 03:29N 50°16' W 001°16'715.3
2017-Dec-23 03:00N 50°17' W 001°04'814.5
2017-Dec-23 02:28N 50°20' W 000°53'613.7
2017-Dec-23 02:00N 50°21' W 000°43'913.2
2017-Dec-23 01:19N 50°24' W 000°29'412.7
2017-Dec-23 01:00N 50°25' W 000°24'612.3
2017-Dec-23 00:30N 50°27' W 000°14'612.0
2017-Dec-23 00:00N 50°29' W 000°05'611.6
2017-Dec-22 23:30N 50°30' E 000°03'611.5
2017-Dec-22 23:00N 50°32' E 000°12'611.6
2017-Dec-22 22:30N 50°33' E 000°21'612.3
2017-Dec-22 22:00N 50°35' E 000°30'612.8
2017-Dec-22 21:30N 50°38' E 000°39'713.8
2017-Dec-22 21:00N 50°42' E 000°47'714.6
2017-Dec-22 20:30N 50°47' E 000°56'815.0
2017-Dec-22 20:00N 50°52' E 001°05'715.1
2017-Dec-22 19:30N 50°57' E 001°14'815.0
2017-Dec-22 19:00N 51°02' E 001°24'714.0
2017-Dec-22 18:30N 51°06' E 001°32'713.1
2017-Dec-22 18:00N 51°11' E 001°40'612.6
2017-Dec-22 17:30N 51°15' E 001°47'612.2
2017-Dec-22 17:00N 51°20' E 001°53'612.0
2017-Dec-22 16:30N 51°25' E 001°57'611.7
2017-Dec-22 16:00N 51°30' E 002°02'611.7
2017-Dec-22 15:30N 51°35' E 002°08'712.2
2017-Dec-22 14:58N 51°40' E 002°14'612.2
2017-Dec-22 14:29N 51°45' E 002°20'612.7
2017-Dec-22 13:59N 51°49' E 002°27'613.3
2017-Dec-22 13:30N 51°54' E 002°34'713.9
2017-Dec-22 12:59N 51°59' E 002°42'814.5
2017-Dec-22 12:27N 52°05' E 002°51'714.7
2017-Dec-22 11:59N 52°10' E 002°58'715.0
2017-Dec-22 11:30N 52°16' E 003°05'815.0
2017-Dec-22 10:59N 52°22' E 003°13'715.0
2017-Dec-22 10:30N 52°28' E 003°20'714.8
2017-Dec-22 10:00N 52°34' E 003°27'714.4
2017-Dec-22 09:30N 52°40' E 003°34'713.9
2017-Dec-22 09:00N 52°46' E 003°41'713.5
2017-Dec-22 08:30N 52°51' E 003°47'613.0
2017-Dec-22 08:00N 52°56' E 003°55'612.8
2017-Dec-22 07:30N 52°60' E 004°03'612.7
2017-Dec-22 07:00N 53°04' E 004°11'612.4
2017-Dec-22 06:30N 53°08' E 004°19'611.4
2017-Dec-22 06:00N 53°12' E 004°25'612.0
2017-Dec-22 05:30N 53°17' E 004°30'612.9
2017-Dec-22 05:00N 53°23' E 004°34'713.3
2017-Dec-22 04:31N 53°29' E 004°39'714.1
2017-Dec-22 04:01N 53°32' E 004°50'714.7
2017-Dec-22 03:30N 53°35' E 005°02'714.4
2017-Dec-22 03:00N 53°37' E 005°13'714.3
2017-Dec-22 02:30N 53°39' E 005°25'714.1
2017-Dec-22 02:01N 53°41' E 005°36'813.9
2017-Dec-22 01:26N 53°44' E 005°49'713.6
2017-Dec-22 00:54N 53°46' E 006°01'813.1
2017-Dec-22 00:17N 53°48' E 006°14'612.6
2017-Dec-21 23:49N 53°50' E 006°23'612.1
2017-Dec-21 23:18N 53°52' E 006°34'411.9
2017-Dec-21 22:59N 53°52' E 006°40'811.7
2017-Dec-21 22:18N 53°54' E 006°53'1211.4
2017-Dec-21 21:17N 53°57' E 007°12'411.6
2017-Dec-21 20:59N 53°58' E 007°18'912.0
2017-Dec-21 20:16N 53°60' E 007°32'312.5
2017-Dec-21 19:59N 54°01' E 007°38'612.6
2017-Dec-21 19:30N 54°01' E 007°48'713.2
2017-Dec-21 19:00N 54°01' E 007°59'612.6
2017-Dec-21 18:30N 54°01' E 008°10'611.7
2017-Dec-21 18:00N 53°60' E 008°20'714.9
2017-Dec-21 17:30N 53°58' E 008°32'714.6
2017-Dec-21 17:00N 53°54' E 008°42'613.0
2017-Dec-21 16:30N 53°50' E 008°51'612.4
2017-Dec-21 16:00N 53°52' E 009°02'510.3
2017-Dec-21 15:30N 53°53' E 009°10'4 7.9
2017-Dec-21 15:00N 53°52' E 009°17'5 9.8
2017-Dec-21 14:30N 53°49' E 009°22'5 9.5
2017-Dec-21 14:00N 53°44' E 009°26'5 9.3
2017-Dec-21 13:31N 53°41' E 009°31'4 8.3
2017-Dec-21 13:00N 53°37' E 009°34'5 9.5
2017-Dec-21 12:30N 53°34' E 009°40'510.6
2017-Dec-21 12:00N 53°33' E 009°49'4 8.6
2017-Dec-21 11:30N 53°32' E 009°56'3 5.5
2017-Dec-21 10:59N 53°29' E 009°57'0 0.1
2017-Dec-21 10:29N 53°29' E 009°57'0 0.0
2017-Dec-21 09:59N 53°29' E 009°57'0 0.0
2017-Dec-21 09:29N 53°29' E 009°57'0 0.0
2017-Dec-21 08:59N 53°29' E 009°57'0 0.0
2017-Dec-21 08:29N 53°29' E 009°57'0 0.0
2017-Dec-21 07:59N 53°29' E 009°57'0 0.0
2017-Dec-21 07:29N 53°29' E 009°57'0 0.0
2017-Dec-21 06:59N 53°29' E 009°57'0 0.0
2017-Dec-21 06:29N 53°29' E 009°57'0 0.0
2017-Dec-21 05:59N 53°29' E 009°57'0 0.0
2017-Dec-21 05:29N 53°29' E 009°57'0 0.0
2017-Dec-21 04:59N 53°29' E 009°57'0 0.0
2017-Dec-21 04:29N 53°29' E 009°57'0 0.0
2017-Dec-21 03:59N 53°29' E 009°57'0 0.0
2017-Dec-21 03:29N 53°29' E 009°57'0 0.0
2017-Dec-21 02:59N 53°29' E 009°57'0 0.0
2017-Dec-21 02:29N 53°29' E 009°57'0 0.0
2017-Dec-21 01:59N 53°29' E 009°57'0 0.0
2017-Dec-21 01:29N 53°29' E 009°57'0 0.0
2017-Dec-21 00:59N 53°29' E 009°57'0 0.0
2017-Dec-21 00:29N 53°29' E 009°57'0 0.0
2017-Dec-20 23:59N 53°29' E 009°57'0 0.0
2017-Dec-20 23:29N 53°29' E 009°57'0 0.0
2017-Dec-20 22:59N 53°29' E 009°57'0 0.0
2017-Dec-20 22:29N 53°29' E 009°57'0 0.0
2017-Dec-20 21:59N 53°29' E 009°57'0 0.0
2017-Dec-20 21:29N 53°29' E 009°57'0 0.0
2017-Dec-20 20:59N 53°29' E 009°57'0 0.0
2017-Dec-20 20:29N 53°29' E 009°57'0 0.0
2017-Dec-20 19:59N 53°29' E 009°57'0 0.0
2017-Dec-20 19:29N 53°29' E 009°57'0 0.0
2017-Dec-20 18:59N 53°29' E 009°57'0 0.0
2017-Dec-20 18:29N 53°29' E 009°57'0 0.0
2017-Dec-20 17:59N 53°29' E 009°57'0 0.0
2017-Dec-20 17:29N 53°29' E 009°57'0 0.0
2017-Dec-20 16:59N 53°29' E 009°57'0 0.0
2017-Dec-20 16:29N 53°29' E 009°57'0 0.0
2017-Dec-20 15:59N 53°29' E 009°57'0 0.0
2017-Dec-20 15:29N 53°29' E 009°57'0 0.0
2017-Dec-20 14:59N 53°29' E 009°57'0 0.0
2017-Dec-20 14:29N 53°29' E 009°57'0 0.0
2017-Dec-20 13:59N 53°29' E 009°57'0 0.0
2017-Dec-20 13:29N 53°29' E 009°57'0 0.0
2017-Dec-20 12:59N 53°29' E 009°57'0 0.0
2017-Dec-20 12:29N 53°29' E 009°57'0 0.0
2017-Dec-20 11:59N 53°29' E 009°57'0 0.0
2017-Dec-20 11:29N 53°29' E 009°57'0 0.0
2017-Dec-20 10:59N 53°29' E 009°57'0 0.0
2017-Dec-20 10:29N 53°29' E 009°57'0 0.0
2017-Dec-20 09:59N 53°29' E 009°57'0 0.0
2017-Dec-20 09:29N 53°29' E 009°57'0 0.0
2017-Dec-20 08:59N 53°29' E 009°57'0 0.0
2017-Dec-20 08:29N 53°29' E 009°57'0 0.0
2017-Dec-20 07:59N 53°29' E 009°57'0 0.0
2017-Dec-20 07:29N 53°29' E 009°57'0 0.0
2017-Dec-20 06:59N 53°29' E 009°57'0 0.0
2017-Dec-20 06:29N 53°29' E 009°57'0 0.0
2017-Dec-20 05:59N 53°29' E 009°57'0 0.0
2017-Dec-20 05:29N 53°29' E 009°57'0 0.0
2017-Dec-20 04:59N 53°29' E 009°57'0 0.0
2017-Dec-20 04:29N 53°29' E 009°57'0 0.0
2017-Dec-20 03:59N 53°29' E 009°57'0 0.0
2017-Dec-20 03:29N 53°29' E 009°57'0 0.0
2017-Dec-20 02:59N 53°29' E 009°57'0 0.0
2017-Dec-20 02:29N 53°29' E 009°57'0 0.0
2017-Dec-20 01:59N 53°29' E 009°57'0 0.0
2017-Dec-20 01:29N 53°29' E 009°57'0 0.0
2017-Dec-20 00:59N 53°29' E 009°57'0 0.0
2017-Dec-20 00:29N 53°29' E 009°57'0 0.0
2017-Dec-19 23:59N 53°29' E 009°57'0 0.0
2017-Dec-19 23:29N 53°29' E 009°57'0 0.0
2017-Dec-19 22:59N 53°29' E 009°57'0 0.0
2017-Dec-19 22:29N 53°29' E 009°57'0 0.0
2017-Dec-19 21:59N 53°29' E 009°57'0 0.0
2017-Dec-19 21:26N 53°29' E 009°57'0 0.0
2017-Dec-19 20:59N 53°29' E 009°57'0 0.1
2017-Dec-19 20:29N 53°29' E 009°57'0 0.1
2017-Dec-19 19:59N 53°29' E 009°57'0 0.0
2017-Dec-19 19:29N 53°29' E 009°57'0 0.0
2017-Dec-19 18:59N 53°29' E 009°57'0 0.0
2017-Dec-19 18:29N 53°29' E 009°57'0 0.0
2017-Dec-19 17:59N 53°29' E 009°57'0 0.0
2017-Dec-19 17:29N 53°29' E 009°57'0 0.0
2017-Dec-19 16:59N 53°29' E 009°57'0 0.0
2017-Dec-19 16:29N 53°29' E 009°57'0 0.0
2017-Dec-19 15:59N 53°29' E 009°57'0 0.0
2017-Dec-19 15:29N 53°29' E 009°57'0 0.0
2017-Dec-19 14:59N 53°29' E 009°57'0 0.0
2017-Dec-19 14:29N 53°29' E 009°57'0 0.0
2017-Dec-19 13:59N 53°29' E 009°57'0 0.0
2017-Dec-19 13:29N 53°29' E 009°57'0 0.0
2017-Dec-19 12:59N 53°29' E 009°57'0 0.0
2017-Dec-19 12:29N 53°29' E 009°57'0 0.0
2017-Dec-19 11:59N 53°29' E 009°57'0 0.0
2017-Dec-19 11:29N 53°29' E 009°57'0 0.0
2017-Dec-19 10:59N 53°29' E 009°57'0 0.0
2017-Dec-19 10:29N 53°29' E 009°57'0 0.0
2017-Dec-19 09:59N 53°29' E 009°57'0 0.0
2017-Dec-19 09:29N 53°29' E 009°57'0 0.0
2017-Dec-19 08:59N 53°29' E 009°57'0 0.0
2017-Dec-19 08:29N 53°29' E 009°57'0 0.0
2017-Dec-19 07:59N 53°29' E 009°57'0 0.0
2017-Dec-19 07:29N 53°29' E 009°57'0 0.0
2017-Dec-19 06:59N 53°29' E 009°57'0 0.0
2017-Dec-19 06:29N 53°29' E 009°57'0 0.0
2017-Dec-19 05:59N 53°29' E 009°57'0 0.0
2017-Dec-19 05:29N 53°29' E 009°57'0 0.0
2017-Dec-19 04:59N 53°29' E 009°57'0 0.0
2017-Dec-19 04:29N 53°29' E 009°57'1 1.2
2017-Dec-19 03:59N 53°30' E 009°57'1 2.3
2017-Dec-19 03:29N 53°31' E 009°56'0 0.4
2017-Dec-19 02:59N 53°31' E 009°56'0 0.0
2017-Dec-19 02:29N 53°31' E 009°56'0 0.0
2017-Dec-19 01:59N 53°31' E 009°56'0 0.0
2017-Dec-19 01:29N 53°31' E 009°56'0 0.0
2017-Dec-19 00:59N 53°31' E 009°56'0 0.0
2017-Dec-19 00:29N 53°31' E 009°56'0 0.0
2017-Dec-18 23:59N 53°31' E 009°56'0 0.0
2017-Dec-18 23:29N 53°31' E 009°56'0 0.0
2017-Dec-18 22:59N 53°31' E 009°56'0 0.0
2017-Dec-18 22:29N 53°31' E 009°56'0 0.0
2017-Dec-18 21:59N 53°31' E 009°56'0 0.0
2017-Dec-18 21:29N 53°31' E 009°56'0 0.0
2017-Dec-18 20:59N 53°31' E 009°56'  
Track history (hours):
 
Tides and Currents Weather Stations Pressure Air Temp Water Temp Dewpoint Dewpoint Depression Visibility Wind Speed Wind Dir Waves Ship Positions

Seajourney

Last reported at 2017-Dec-28 20:45 UTC. Time now 2018-Feb-24 22:11 UTC.
Position N 37°50' W 031°23'.
Warning: this ship's position is 58 days out of date.

Length 229 m; draft 6.8 m.

Type: Cargo ship. MMSI: 538006596.

Date/timePositionNaut miles runAvg speedWind from/ knotsBaromVisibWave heightAir tempDewpointWater temp
2017-Dec-28 20:45N 37°50' W 031°23'311.7
2017-Dec-28 20:29N 37°52' W 031°21'611.7
2017-Dec-28 19:58N 37°56' W 031°15'711.4
2017-Dec-28 19:19N 38°01' W 031°08'411.8
2017-Dec-28 18:58N 38°04' W 031°04'511.5
2017-Dec-28 18:30N 38°08' W 030°60'711.7
2017-Dec-28 17:57N 38°13' W 030°54'511.7
2017-Dec-28 17:30N 38°16' W 030°50'611.6
2017-Dec-28 17:00N 38°21' W 030°44'611.3
2017-Dec-28 16:30N 38°24' W 030°39'611.4
2017-Dec-28 16:00N 38°28' W 030°33'611.6
2017-Dec-28 15:31N 38°31' W 030°27'611.4
2017-Dec-28 15:00N 38°35' W 030°21'611.4
2017-Dec-28 14:30N 38°38' W 030°16'611.4
2017-Dec-28 14:00N 38°41' W 030°10'511.0
2017-Dec-28 13:30N 38°44' W 030°04'611.1
2017-Dec-28 13:00N 38°47' W 029°57'611.2
2017-Dec-28 12:30N 38°49' W 029°51'611.3
2017-Dec-28 12:00N 38°52' W 029°44'611.1
2017-Dec-28 11:30N 38°55' W 029°38'510.9
2017-Dec-28 11:00N 38°57' W 029°32'510.9
2017-Dec-28 10:30N 38°60' W 029°26'510.9
2017-Dec-28 10:00N 39°03' W 029°20'611.2
2017-Dec-28 09:30N 39°06' W 029°14'611.2
2017-Dec-28 09:00N 39°09' W 029°08'510.8
2017-Dec-28 08:31N 39°12' W 029°02'611.4
2017-Dec-28 08:00N 39°15' W 028°56'611.4
2017-Dec-28 07:30N 39°18' W 028°50'611.4
2017-Dec-28 07:01N 39°21' W 028°44'611.4
2017-Dec-28 06:30N 39°25' W 028°38'611.6
2017-Dec-28 06:00N 39°28' W 028°32'611.4
2017-Dec-28 05:30N 39°31' W 028°25'611.5
2017-Dec-28 05:00N 39°34' W 028°19'611.4
2017-Dec-28 04:30N 39°37' W 028°13'611.2
2017-Dec-28 04:01N 39°40' W 028°07'611.4
2017-Dec-28 03:30N 39°44' W 028°01'611.4
2017-Dec-28 03:00N 39°47' W 027°55'611.3
2017-Dec-28 02:26N 39°50' W 027°48'24311.2
2017-Dec-27 04:45N 42°11' W 023°25'5 9.7
2017-Dec-27 04:14N 42°14' W 023°20'  
2017-Dec-23 20:13N 49°07' W 006°37'312.5
2017-Dec-23 20:00N 49°08' W 006°33'912.2
2017-Dec-23 19:19N 49°12' W 006°22'412.1
2017-Dec-23 19:00N 49°13' W 006°16'712.1
2017-Dec-23 18:26N 49°16' W 006°07'1212.1
2017-Dec-23 17:27N 49°20' W 005°50'512.2
2017-Dec-23 17:00N 49°22' W 005°42'1412.6
2017-Dec-23 15:51N 49°28' W 005°22'1112.1
2017-Dec-23 14:55N 49°32' W 005°06'613.3
2017-Dec-23 14:31N 49°35' W 004°58'713.6
2017-Dec-23 14:00N 49°37' W 004°48'1013.6
2017-Dec-23 13:16N 49°40' W 004°33'413.7
2017-Dec-23 13:00N 49°41' W 004°28'713.6
2017-Dec-23 12:30N 49°43' W 004°18'713.4
2017-Dec-23 12:01N 49°45' W 004°08'713.2
2017-Dec-23 11:31N 49°47' W 003°58'612.8
2017-Dec-23 11:01N 49°48' W 003°49'612.3
2017-Dec-23 10:30N 49°50' W 003°39'612.0
2017-Dec-23 10:00N 49°52' W 003°31'611.7
2017-Dec-23 09:31N 49°54' W 003°22'611.7
2017-Dec-23 09:00N 49°56' W 003°13'611.7
2017-Dec-23 08:30N 49°57' W 003°05'611.9
2017-Dec-23 08:00N 49°59' W 002°56'612.4
2017-Dec-23 07:30N 50°01' W 002°47'713.1
2017-Dec-23 07:00N 50°03' W 002°37'713.6
2017-Dec-23 06:30N 50°05' W 002°27'714.4
2017-Dec-23 06:00N 50°06' W 002°16'1015.3
2017-Dec-23 05:23N 50°08' W 002°01'715.8
2017-Dec-23 04:55N 50°10' W 001°50'716.1
2017-Dec-23 04:29N 50°12' W 001°40'816.1
2017-Dec-23 04:00N 50°14' W 001°28'815.7
2017-Dec-23 03:29N 50°16' W 001°16'715.3
2017-Dec-23 03:00N 50°17' W 001°04'814.5
2017-Dec-23 02:28N 50°20' W 000°53'613.7
2017-Dec-23 02:00N 50°21' W 000°43'913.2
2017-Dec-23 01:19N 50°24' W 000°29'412.7
2017-Dec-23 01:00N 50°25' W 000°24'612.3
2017-Dec-23 00:30N 50°27' W 000°14'612.0
2017-Dec-23 00:00N 50°29' W 000°05'611.6
2017-Dec-22 23:30N 50°30' E 000°03'611.5
2017-Dec-22 23:00N 50°32' E 000°12'611.6
2017-Dec-22 22:30N 50°33' E 000°21'612.3
2017-Dec-22 22:00N 50°35' E 000°30'612.8
2017-Dec-22 21:30N 50°38' E 000°39'713.8
2017-Dec-22 21:00N 50°42' E 000°47'714.6
2017-Dec-22 20:30N 50°47' E 000°56'815.0
2017-Dec-22 20:00N 50°52' E 001°05'715.1
2017-Dec-22 19:30N 50°57' E 001°14'815.0
2017-Dec-22 19:00N 51°02' E 001°24'714.0
2017-Dec-22 18:30N 51°06' E 001°32'713.1
2017-Dec-22 18:00N 51°11' E 001°40'612.6
2017-Dec-22 17:30N 51°15' E 001°47'612.2
2017-Dec-22 17:00N 51°20' E 001°53'612.0
2017-Dec-22 16:30N 51°25' E 001°57'611.7
2017-Dec-22 16:00N 51°30' E 002°02'611.7
2017-Dec-22 15:30N 51°35' E 002°08'712.2
2017-Dec-22 14:58N 51°40' E 002°14'612.2
2017-Dec-22 14:29N 51°45' E 002°20'612.7
2017-Dec-22 13:59N 51°49' E 002°27'613.3
2017-Dec-22 13:30N 51°54' E 002°34'713.9
2017-Dec-22 12:59N 51°59' E 002°42'814.5
2017-Dec-22 12:27N 52°05' E 002°51'714.7
2017-Dec-22 11:59N 52°10' E 002°58'715.0
2017-Dec-22 11:30N 52°16' E 003°05'815.0
2017-Dec-22 10:59N 52°22' E 003°13'715.0
2017-Dec-22 10:30N 52°28' E 003°20'714.8
2017-Dec-22 10:00N 52°34' E 003°27'714.4
2017-Dec-22 09:30N 52°40' E 003°34'713.9
2017-Dec-22 09:00N 52°46' E 003°41'713.5
2017-Dec-22 08:30N 52°51' E 003°47'613.0
2017-Dec-22 08:00N 52°56' E 003°55'612.8
2017-Dec-22 07:30N 52°60' E 004°03'612.7
2017-Dec-22 07:00N 53°04' E 004°11'612.4
2017-Dec-22 06:30N 53°08' E 004°19'611.4
2017-Dec-22 06:00N 53°12' E 004°25'612.0
2017-Dec-22 05:30N 53°17' E 004°30'612.9
2017-Dec-22 05:00N 53°23' E 004°34'713.3
2017-Dec-22 04:31N 53°29' E 004°39'714.1
2017-Dec-22 04:01N 53°32' E 004°50'714.7
2017-Dec-22 03:30N 53°35' E 005°02'714.4
2017-Dec-22 03:00N 53°37' E 005°13'714.3
2017-Dec-22 02:30N 53°39' E 005°25'714.1
2017-Dec-22 02:01N 53°41' E 005°36'813.9
2017-Dec-22 01:26N 53°44' E 005°49'713.6
2017-Dec-22 00:54N 53°46' E 006°01'813.1
2017-Dec-22 00:17N 53°48' E 006°14'612.6
2017-Dec-21 23:49N 53°50' E 006°23'612.1
2017-Dec-21 23:18N 53°52' E 006°34'411.9
2017-Dec-21 22:59N 53°52' E 006°40'811.7
2017-Dec-21 22:18N 53°54' E 006°53'1211.4
2017-Dec-21 21:17N 53°57' E 007°12'411.6
2017-Dec-21 20:59N 53°58' E 007°18'912.0
2017-Dec-21 20:16N 53°60' E 007°32'312.5
2017-Dec-21 19:59N 54°01' E 007°38'612.6
2017-Dec-21 19:30N 54°01' E 007°48'713.2
2017-Dec-21 19:00N 54°01' E 007°59'612.6
2017-Dec-21 18:30N 54°01' E 008°10'611.7
2017-Dec-21 18:00N 53°60' E 008°20'714.9
2017-Dec-21 17:30N 53°58' E 008°32'714.6
2017-Dec-21 17:00N 53°54' E 008°42'613.0
2017-Dec-21 16:30N 53°50' E 008°51'612.4
2017-Dec-21 16:00N 53°52' E 009°02'510.3
2017-Dec-21 15:30N 53°53' E 009°10'4 7.9
2017-Dec-21 15:00N 53°52' E 009°17'5 9.8
2017-Dec-21 14:30N 53°49' E 009°22'5 9.5
2017-Dec-21 14:00N 53°44' E 009°26'5 9.3
2017-Dec-21 13:31N 53°41' E 009°31'4 8.3
2017-Dec-21 13:00N 53°37' E 009°34'5 9.5
2017-Dec-21 12:30N 53°34' E 009°40'510.6
2017-Dec-21 12:00N 53°33' E 009°49'4 8.6
2017-Dec-21 11:30N 53°32' E 009°56'3 5.5
2017-Dec-21 10:59N 53°29' E 009°57'0 0.1
2017-Dec-21 10:29N 53°29' E 009°57'0 0.0
2017-Dec-21 09:59N 53°29' E 009°57'0 0.0
2017-Dec-21 09:29N 53°29' E 009°57'0 0.0
2017-Dec-21 08:59N 53°29' E 009°57'0 0.0
2017-Dec-21 08:29N 53°29' E 009°57'0 0.0
2017-Dec-21 07:59N 53°29' E 009°57'0 0.0
2017-Dec-21 07:29N 53°29' E 009°57'0 0.0
2017-Dec-21 06:59N 53°29' E 009°57'0 0.0
2017-Dec-21 06:29N 53°29' E 009°57'0 0.0
2017-Dec-21 05:59N 53°29' E 009°57'0 0.0
2017-Dec-21 05:29N 53°29' E 009°57'0 0.0
2017-Dec-21 04:59N 53°29' E 009°57'0 0.0
2017-Dec-21 04:29N 53°29' E 009°57'0 0.0
2017-Dec-21 03:59N 53°29' E 009°57'0 0.0
2017-Dec-21 03:29N 53°29' E 009°57'0 0.0
2017-Dec-21 02:59N 53°29' E 009°57'0 0.0
2017-Dec-21 02:29N 53°29' E 009°57'0 0.0
2017-Dec-21 01:59N 53°29' E 009°57'0 0.0
2017-Dec-21 01:29N 53°29' E 009°57'0 0.0
2017-Dec-21 00:59N 53°29' E 009°57'0 0.0
2017-Dec-21 00:29N 53°29' E 009°57'0 0.0
2017-Dec-20 23:59N 53°29' E 009°57'0 0.0
2017-Dec-20 23:29N 53°29' E 009°57'0 0.0
2017-Dec-20 22:59N 53°29' E 009°57'0 0.0
2017-Dec-20 22:29N 53°29' E 009°57'0 0.0
2017-Dec-20 21:59N 53°29' E 009°57'0 0.0
2017-Dec-20 21:29N 53°29' E 009°57'0 0.0
2017-Dec-20 20:59N 53°29' E 009°57'0 0.0
2017-Dec-20 20:29N 53°29' E 009°57'0 0.0
2017-Dec-20 19:59N 53°29' E 009°57'0 0.0
2017-Dec-20 19:29N 53°29' E 009°57'0 0.0
2017-Dec-20 18:59N 53°29' E 009°57'0 0.0
2017-Dec-20 18:29N 53°29' E 009°57'0 0.0
2017-Dec-20 17:59N 53°29' E 009°57'0 0.0
2017-Dec-20 17:29N 53°29' E 009°57'0 0.0
2017-Dec-20 16:59N 53°29' E 009°57'0 0.0
2017-Dec-20 16:29N 53°29' E 009°57'0 0.0
2017-Dec-20 15:59N 53°29' E 009°57'0 0.0
2017-Dec-20 15:29N 53°29' E 009°57'0 0.0
2017-Dec-20 14:59N 53°29' E 009°57'0 0.0
2017-Dec-20 14:29N 53°29' E 009°57'0 0.0
2017-Dec-20 13:59N 53°29' E 009°57'0 0.0
2017-Dec-20 13:29N 53°29' E 009°57'0 0.0
2017-Dec-20 12:59N 53°29' E 009°57'0 0.0
2017-Dec-20 12:29N 53°29' E 009°57'0 0.0
2017-Dec-20 11:59N 53°29' E 009°57'0 0.0
2017-Dec-20 11:29N 53°29' E 009°57'0 0.0
2017-Dec-20 10:59N 53°29' E 009°57'0 0.0
2017-Dec-20 10:29N 53°29' E 009°57'0 0.0
2017-Dec-20 09:59N 53°29' E 009°57'0 0.0
2017-Dec-20 09:29N 53°29' E 009°57'0 0.0
2017-Dec-20 08:59N 53°29' E 009°57'0 0.0
2017-Dec-20 08:29N 53°29' E 009°57'0 0.0
2017-Dec-20 07:59N 53°29' E 009°57'0 0.0
2017-Dec-20 07:29N 53°29' E 009°57'0 0.0
2017-Dec-20 06:59N 53°29' E 009°57'0 0.0
2017-Dec-20 06:29N 53°29' E 009°57'0 0.0
2017-Dec-20 05:59N 53°29' E 009°57'0 0.0
2017-Dec-20 05:29N 53°29' E 009°57'0 0.0
2017-Dec-20 04:59N 53°29' E 009°57'0 0.0
2017-Dec-20 04:29N 53°29' E 009°57'0 0.0
2017-Dec-20 03:59N 53°29' E 009°57'0 0.0
2017-Dec-20 03:29N 53°29' E 009°57'0 0.0
2017-Dec-20 02:59N 53°29' E 009°57'0 0.0
2017-Dec-20 02:29N 53°29' E 009°57'0 0.0
2017-Dec-20 01:59N 53°29' E 009°57'0 0.0
2017-Dec-20 01:29N 53°29' E 009°57'0 0.0
2017-Dec-20 00:59N 53°29' E 009°57'0 0.0
2017-Dec-20 00:29N 53°29' E 009°57'0 0.0
2017-Dec-19 23:59N 53°29' E 009°57'0 0.0
2017-Dec-19 23:29N 53°29' E 009°57'0 0.0
2017-Dec-19 22:59N 53°29' E 009°57'0 0.0
2017-Dec-19 22:29N 53°29' E 009°57'0 0.0
2017-Dec-19 21:59N 53°29' E 009°57'0 0.0
2017-Dec-19 21:26N 53°29' E 009°57'0 0.0
2017-Dec-19 20:59N 53°29' E 009°57'0 0.1
2017-Dec-19 20:29N 53°29' E 009°57'0 0.1
2017-Dec-19 19:59N 53°29' E 009°57'0 0.0
2017-Dec-19 19:29N 53°29' E 009°57'0 0.0
2017-Dec-19 18:59N 53°29' E 009°57'0 0.0
2017-Dec-19 18:29N 53°29' E 009°57'0 0.0
2017-Dec-19 17:59N 53°29' E 009°57'0 0.0
2017-Dec-19 17:29N 53°29' E 009°57'0 0.0
2017-Dec-19 16:59N 53°29' E 009°57'0 0.0
2017-Dec-19 16:29N 53°29' E 009°57'0 0.0
2017-Dec-19 15:59N 53°29' E 009°57'0 0.0
2017-Dec-19 15:29N 53°29' E 009°57'0 0.0
2017-Dec-19 14:59N 53°29' E 009°57'0 0.0
2017-Dec-19 14:29N 53°29' E 009°57'0 0.0
2017-Dec-19 13:59N 53°29' E 009°57'0 0.0
2017-Dec-19 13:29N 53°29' E 009°57'0 0.0
2017-Dec-19 12:59N 53°29' E 009°57'0 0.0
2017-Dec-19 12:29N 53°29' E 009°57'0 0.0
2017-Dec-19 11:59N 53°29' E 009°57'0 0.0
2017-Dec-19 11:29N 53°29' E 009°57'0 0.0
2017-Dec-19 10:59N 53°29' E 009°57'0 0.0
2017-Dec-19 10:29N 53°29' E 009°57'0 0.0
2017-Dec-19 09:59N 53°29' E 009°57'0 0.0
2017-Dec-19 09:29N 53°29' E 009°57'0 0.0
2017-Dec-19 08:59N 53°29' E 009°57'0 0.0
2017-Dec-19 08:29N 53°29' E 009°57'0 0.0
2017-Dec-19 07:59N 53°29' E 009°57'0 0.0
2017-Dec-19 07:29N 53°29' E 009°57'0 0.0
2017-Dec-19 06:59N 53°29' E 009°57'0 0.0
2017-Dec-19 06:29N 53°29' E 009°57'0 0.0
2017-Dec-19 05:59N 53°29' E 009°57'0 0.0
2017-Dec-19 05:29N 53°29' E 009°57'0 0.0
2017-Dec-19 04:59N 53°29' E 009°57'0 0.0
2017-Dec-19 04:29N 53°29' E 009°57'1 1.2
2017-Dec-19 03:59N 53°30' E 009°57'1 2.3
2017-Dec-19 03:29N 53°31' E 009°56'0 0.4
2017-Dec-19 02:59N 53°31' E 009°56'0 0.0
2017-Dec-19 02:29N 53°31' E 009°56'0 0.0
2017-Dec-19 01:59N 53°31' E 009°56'0 0.0
2017-Dec-19 01:29N 53°31' E 009°56'0 0.0
2017-Dec-19 00:59N 53°31' E 009°56'0 0.0
2017-Dec-19 00:29N 53°31' E 009°56'0 0.0
2017-Dec-18 23:59N 53°31' E 009°56'0 0.0
2017-Dec-18 23:29N 53°31' E 009°56'0 0.0
2017-Dec-18 22:59N 53°31' E 009°56'0 0.0
2017-Dec-18 22:29N 53°31' E 009°56'0 0.0
2017-Dec-18 21:59N 53°31' E 009°56'0 0.0
2017-Dec-18 21:29N 53°31' E 009°56'0 0.0
2017-Dec-18 20:59N 53°31' E 009°56'  

Dump ship's entire track history